Time;durP1;ratioP1;P1;durP2;ratioP2;P2;SDS_P1;SDS_P2;PMS_P1;PMS_P2;Temp;Humidity;BMP_temperature;BMP_pressure;BME280_temperature;BME280_humidity;BME280_pressure;Samples;Min_cycle;Max_cycle;Signal;HPM_P1;HPM_P2
2022/10/04 00:01:57;;;;;;;3.83;1.50;;;;;;;12.89;74.10;98504.81;4450226;32;20474;-82
2022/10/04 00:04:46;;;;;;;7.15;1.62;;;;;;;12.86;74.19;98506.69;4442360;32;20062;-83
2022/10/04 00:07:12;;;;;;;3.70;1.25;;;;;;;12.91;74.14;98509.94;4450250;32;20058;-83
2022/10/04 00:09:42;;;;;;;;;;;;;;;13.17;72.84;98512.16;4449383;32;20089;-83
2022/10/04 00:12:21;;;;;;;7.55;1.80;;;;;;;14.02;68.82;98509.88;4450083;32;19955;-82
2022/10/04 00:14:59;;;;;;;4.87;1.65;;;;;;;13.78;69.75;98505.88;4449193;32;20080;-82
2022/10/04 00:17:30;;;;;;;4.65;1.42;;;;;;;13.83;69.34;98519.50;4449231;32;20065;-82
2022/10/04 00:19:57;;;;;;;5.50;1.50;;;;;;;13.80;69.40;98519.62;4422799;32;20114;-82
2022/10/04 00:22:29;;;;;;;6.55;1.50;;;;;;;14.36;67.44;98521.19;4448213;32;20089;-82
2022/10/04 00:25:06;;;;;;;4.50;1.50;;;;;;;14.02;68.36;98522.00;4447299;32;20084;-82
2022/10/04 00:27:37;;;;;;;3.47;1.35;;;;;;;14.40;67.31;98517.50;4447176;32;20078;-83
2022/10/04 00:30:03;;;;;;;4.18;1.50;;;;;;;14.56;66.66;98510.62;4434724;32;20094;-82
2022/10/04 00:32:31;;;;;;;;;;;;;;;14.77;65.42;98509.53;4448035;32;20066;-82
2022/10/04 00:34:58;;;;;;;6.20;1.93;;;;;;;14.52;65.91;98506.53;4433552;32;19969;-82
2022/10/04 00:37:26;;;;;;;3.20;1.40;;;;;;;14.07;67.04;98513.09;4446992;32;20166;-82
2022/10/04 00:40:15;;;;;;;5.55;1.75;;;;;;;15.12;63.70;98514.63;4446126;32;20073;-82
2022/10/04 00:42:42;;;;;;;5.72;1.50;;;;;;;15.05;63.69;98514.09;4454940;32;20080;-82
2022/10/04 00:45:36;;;;;;;;;;;;;;;15.00;63.90;98513.53;4454577;32;20058;-82
2022/10/04 00:48:27;;;;;;;5.97;1.55;;;;;;;14.59;65.30;98523.47;4454882;32;19953;-82
2022/10/04 00:51:18;;;;;;;5.00;1.25;;;;;;;14.78;64.99;98520.78;4454566;32;20070;-82
2022/10/04 00:53:48;;;;;;;;;;;;;;;14.54;65.76;98524.63;4455050;32;20080;-82
2022/10/04 00:56:22;;;;;;;4.80;1.60;;;;;;;14.86;63.94;98518.59;4454743;32;19953;-83
2022/10/04 00:58:56;;;;;;;7.28;1.80;;;;;;;14.69;64.73;98518.66;4454286;32;20080;-81
2022/10/04 01:01:25;;;;;;;6.37;1.70;;;;;;;14.56;65.58;98512.38;4454617;32;20073;-81
2022/10/04 01:03:53;;;;;;;5.97;1.73;;;;;;;14.13;67.25;98510.19;4453460;32;20074;-82
2022/10/04 01:06:20;;;;;;;5.00;1.50;;;;;;;14.29;66.77;98510.25;4441186;32;20071;-81
2022/10/04 01:08:50;;;;;;;4.68;1.60;;;;;;;14.53;66.25;98521.19;4453331;32;20053;-82
2022/10/04 01:11:21;;;;;;;7.32;1.60;;;;;;;14.46;66.13;98515.50;4454395;32;20066;-82
2022/10/04 01:13:59;;;;;;;5.93;1.67;;;;;;;14.64;65.15;98515.44;4454669;32;20085;-82
2022/10/04 01:16:28;;;;;;;6.25;1.70;;;;;;;14.69;65.05;98516.06;4441414;32;20062;-83
2022/10/04 01:18:55;;;;;;;4.85;1.48;;;;;;;14.62;65.00;98517.28;4441304;32;20095;-82
2022/10/04 01:21:28;;;;;;;4.07;1.50;;;;;;;14.62;65.10;98519.88;4441503;32;20069;-82
2022/10/04 01:23:56;;;;;;;5.72;1.80;;;;;;;15.11;63.33;98518.16;4441345;32;20084;-82
2022/10/04 01:26:28;;;;;;;6.35;1.80;;;;;;;14.57;65.63;98516.66;4454151;32;20061;-83
2022/10/04 01:29:01;;;;;;;4.70;1.40;;;;;;;14.63;65.29;98513.75;4454201;32;20077;-82
2022/10/04 01:31:29;;;;;;;4.35;1.58;;;;;;;14.62;64.02;98520.72;4454245;32;20078;-82
2022/10/04 01:33:57;;;;;;;6.72;1.48;;;;;;;14.84;62.93;98517.84;4440802;32;20104;-82
2022/10/04 01:36:24;;;;;;;4.78;1.50;;;;;;;14.80;63.71;98510.31;4441189;32;20057;-81
2022/10/04 01:38:51;;;;;;;5.78;1.48;;;;;;;14.98;62.89;98512.75;4441556;32;20065;-82
2022/10/04 01:41:21;;;;;;;9.23;1.70;;;;;;;15.54;60.92;98511.44;4456225;32;20069;-82
2022/10/04 01:43:52;;;;;;;6.28;1.77;;;;;;;15.55;61.02;98509.69;4443263;32;20119;-81
2022/10/04 01:46:26;;;;;;;7.75;1.62;;;;;;;14.89;63.68;98505.47;4456325;32;20072;-81
2022/10/04 01:48:54;;;;;;;5.25;1.70;;;;;;;15.34;62.61;98503.91;4443489;32;20065;-82
2022/10/04 01:51:25;;;;;;;4.18;1.33;;;;;;;14.95;63.64;98506.87;4443372;32;20073;-81
2022/10/04 01:53:59;;;;;;;6.53;1.25;;;;;;;15.02;63.45;98503.06;4443175;32;20076;-82
2022/10/04 01:56:30;;;;;;;4.53;1.52;;;;;;;15.11;62.96;98502.56;4443255;32;21581;-82
2022/10/04 01:59:01;;;;;;;6.07;1.67;;;;;;;14.85;63.80;98505.69;4443257;32;20111;-82
2022/10/04 02:01:37;;;;;;;6.55;1.95;;;;;;;14.37;65.55;98507.28;4443079;32;20085;-82
2022/10/04 02:04:19;;;;;;;5.45;1.60;;;;;;;14.08;66.99;98503.56;4443237;32;20108;-82
2022/10/04 02:06:52;;;;;;;5.20;1.40;;;;;;;14.38;66.13;98503.78;4456152;32;20053;-82
2022/10/04 02:09:32;;;;;;;5.87;1.50;;;;;;;14.36;66.07;98500.44;4443293;32;20061;-82
2022/10/04 02:12:00;;;;;;;5.60;1.35;;;;;;;14.06;67.58;98497.59;4443396;32;20074;-82
2022/10/04 02:14:32;;;;;;;4.97;1.40;;;;;;;13.99;67.66;98502.25;4443034;32;20082;-81
2022/10/04 02:17:01;;;;;;;4.20;1.35;;;;;;;14.10;67.31;98493.94;4443245;32;20057;-81
2022/10/04 02:19:34;;;;;;;4.70;1.48;;;;;;;14.01;67.87;98489.19;4443082;32;20054;-82
2022/10/04 02:22:03;;;;;;;5.90;1.67;;;;;;;14.30;66.34;98496.38;4455940;32;20074;-81
2022/10/04 02:24:36;;;;;;;4.80;1.40;;;;;;;14.86;64.68;98502.16;4443021;32;20072;-81
2022/10/04 02:27:04;;;;;;;5.12;1.60;;;;;;;15.26;62.76;98493.91;4456070;32;20061;-81
2022/10/04 02:29:31;;;;;;;5.32;1.60;;;;;;;15.10;63.15;98490.50;4442656;32;20077;-82
2022/10/04 02:34:46;;;;;;;4.07;1.23;;;;;;;15.37;61.56;98493.34;4444867;32;20093;-83
2022/10/04 02:37:14;;;;;;;4.93;1.55;;;;;;;15.15;62.04;98495.44;4442706;32;20076;-82
2022/10/04 02:39:52;;;;;;;5.30;1.55;;;;;;;15.00;62.56;98494.50;4455792;32;20072;-83
2022/10/04 02:42:46;;;;;;;5.03;1.50;;;;;;;14.96;62.48;98490.38;4442898;32;20077;-83
2022/10/04 02:45:36;;;;;;;5.18;1.40;;;;;;;15.23;61.58;98501.06;4442684;32;20070;-83
2022/10/04 02:48:12;;;;;;;5.50;1.30;;;;;;;15.18;61.80;98495.25;4442715;32;20053;-83
2022/10/04 02:50:44;;;;;;;4.80;1.30;;;;;;;15.28;61.17;98502.47;4441989;32;20061;-82
2022/10/04 02:53:18;;;;;;;8.38;1.70;;;;;;;15.14;61.17;98499.78;4455711;32;20092;-83
2022/10/04 02:55:46;;;;;;;4.62;1.37;;;;;;;15.09;61.25;98490.53;4455634;32;20081;-82
2022/10/04 02:58:17;;;;;;;4.53;1.10;;;;;;;15.24;60.55;98500.97;4441974;32;20076;-84
2022/10/04 03:00:49;;;;;;;3.28;1.37;;;;;;;14.74;62.15;98493.25;4434655;32;20073;-83
2022/10/04 03:03:30;;;;;;;6.40;1.23;;;;;;;15.31;60.41;98502.31;4431397;32;20167;-83
2022/10/04 03:06:10;;;;;;;3.75;1.40;;;;;;;15.48;59.50;98497.94;4417658;32;20110;-83
2022/10/04 03:08:56;;;;;;;3.83;1.50;;;;;;;15.20;60.03;98498.59;4443470;32;20072;-83
2022/10/04 03:11:26;;;;;;;3.00;1.40;;;;;;;14.95;61.47;98493.91;4441730;32;20103;-82
2022/10/04 03:13:56;;;;;;;6.25;1.37;;;;;;;15.07;60.56;98482.00;4455257;32;20074;-83
2022/10/04 03:16:24;;;;;;;8.68;1.50;;;;;;;15.61;59.21;98483.34;4452739;32;20077;-83
2022/10/04 03:18:55;;;;;;;5.37;1.55;;;;;;;15.60;58.61;98482.50;4452319;32;20065;-83
2022/10/04 03:21:23;;;;;;;3.37;1.40;;;;;;;15.72;58.29;98477.53;4441473;32;20062;-83
2022/10/04 03:23:51;;;;;;;5.03;1.25;;;;;;;15.72;57.99;98482.75;4455531;32;20074;-82
2022/10/04 03:26:37;;;;;;;5.62;1.40;;;;;;;15.74;57.33;98494.75;4455201;32;20077;-83
2022/10/04 03:29:09;;;;;;;4.65;1.90;;;;;;;15.37;58.02;98484.69;4442626;32;20107;-83
2022/10/04 03:31:42;;;;;;;5.45;1.48;;;;;;;15.34;58.41;98486.53;4455610;32;20107;-83
2022/10/04 03:34:13;;;;;;;3.42;1.30;;;;;;;15.52;57.54;98489.03;4455391;32;20090;-84
2022/10/04 03:36:40;;;;;;;4.45;1.40;;;;;;;15.58;57.44;98486.94;4442445;32;20065;-83
2022/10/04 03:39:10;;;;;;;7.45;1.42;;;;;;;14.92;59.01;98492.31;4454789;32;20085;-84
2022/10/04 03:41:38;;;;;;;3.33;1.67;;;;;;;14.95;59.13;98484.34;4442348;32;20115;-83
2022/10/04 03:44:12;;;;;;;3.53;1.20;;;;;;;15.05;59.02;98493.31;4442196;32;20081;-83
2022/10/04 03:46:39;;;;;;;2.72;1.30;;;;;;;15.32;57.58;98493.59;4439095;32;20078;-82
2022/10/04 03:49:07;;;;;;;5.65;2.10;;;;;;;15.42;57.55;98495.66;4439729;32;20061;-82
2022/10/04 03:51:34;;;;;;;6.12;1.40;;;;;;;15.36;58.02;98498.63;4453032;32;20081;-82
2022/10/04 03:54:05;;;;;;;3.50;1.30;;;;;;;15.58;57.17;98499.94;4452616;32;20104;-82
2022/10/04 03:56:34;;;;;;;2.47;1.20;;;;;;;15.66;56.75;98496.12;4440273;32;20120;-82
2022/10/04 03:59:03;;;;;;;4.97;1.50;;;;;;;15.95;55.47;98495.31;4439009;32;20065;-82
2022/10/04 04:01:39;;;;;;;5.20;1.45;;;;;;;15.58;56.80;98499.09;4452324;32;20076;-82
2022/10/04 04:04:20;;;;;;;3.17;1.30;;;;;;;15.44;57.27;98491.25;4451236;32;20110;-83
2022/10/04 04:07:00;;;;;;;3.37;1.42;;;;;;;15.69;56.66;98496.78;4451434;32;20088;-82
2022/10/04 04:09:42;;;;;;;3.53;1.30;;;;;;;15.71;56.87;98492.31;4438582;32;20085;-82
2022/10/04 04:12:35;;;;;;;6.10;1.48;;;;;;;15.91;55.73;98491.19;4437896;32;20077;-82
2022/10/04 04:15:06;;;;;;;2.40;1.25;;;;;;;15.03;58.59;98499.53;4451338;32;20116;-82
2022/10/04 04:17:36;;;;;;;5.32;1.60;;;;;;;15.34;57.87;98483.09;4437870;32;20073;-83
2022/10/04 04:20:07;;;;;;;3.67;1.23;;;;;;;15.19;58.74;98487.38;4451254;32;20061;-83
2022/10/04 04:22:35;;;;;;;3.67;1.30;;;;;;;15.19;58.21;98479.56;4425063;32;20076;-82
2022/10/04 04:25:05;;;;;;;3.92;1.40;;;;;;;15.50;57.56;98490.88;4437675;32;20084;-83
2022/10/04 04:27:33;;;;;;;3.12;1.30;;;;;;;15.10;58.56;98493.09;4450943;32;20080;-83
2022/10/04 04:30:02;;;;;;;4.45;1.25;;;;;;;15.92;56.26;98492.84;4449921;32;20578;-83
2022/10/04 04:32:34;;;;;;;5.20;1.42;;;;;;;15.38;57.62;98484.59;4453797;32;20057;-82
2022/10/04 04:35:07;;;;;;;4.20;1.37;;;;;;;15.08;58.83;98489.72;4454432;32;20066;-82
2022/10/04 04:37:35;;;;;;;7.68;1.40;;;;;;;15.01;59.49;98496.19;4454476;32;20066;-83
2022/10/04 04:40:20;;;;;;;5.90;1.58;;;;;;;14.78;60.40;98494.81;4454599;32;20081;-83
2022/10/04 04:42:47;;;;;;;3.95;1.30;;;;;;;14.70;61.13;98499.56;4441498;32;20057;-83
2022/10/04 04:45:18;;;;;;;5.62;1.62;;;;;;;14.58;61.59;98495.84;4454368;32;20070;-84
2022/10/04 04:47:49;;;;;;;3.95;1.35;;;;;;;14.13;63.06;98497.19;4454379;32;20086;-83
2022/10/04 04:50:17;;;;;;;5.70;1.52;;;;;;;14.25;63.65;98500.97;4441077;32;20057;-84
2022/10/04 04:52:47;;;;;;;5.20;1.42;;;;;;;14.23;64.02;98500.19;4441250;32;20058;-83
2022/10/04 04:55:21;;;;;;;5.00;1.48;;;;;;;14.19;64.21;98498.66;4440934;32;20070;-84
2022/10/04 04:57:49;;;;;;;5.32;1.58;;;;;;;14.23;64.45;98502.78;4453702;32;20081;-83
2022/10/04 05:00:19;;;;;;;4.80;1.30;;;;;;;13.90;65.88;98494.91;4439612;32;20054;-83
2022/10/04 05:02:55;;;;;;;6.47;1.50;;;;;;;13.84;66.51;98506.44;4453417;32;20049;-84
2022/10/04 05:05:33;;;;;;;3.03;1.20;;;;;;;13.86;66.77;98503.78;4440959;32;20125;-84
2022/10/04 05:08:10;;;;;;;4.00;1.52;;;;;;;13.93;66.72;98504.28;4440989;32;20078;-84
2022/10/04 05:10:41;;;;;;;5.12;1.60;;;;;;;14.16;65.75;98514.41;4435716;32;20058;-83
2022/10/04 05:13:09;;;;;;;4.22;1.33;;;;;;;13.98;66.25;98518.72;4444676;32;20082;-83
2022/10/04 05:15:38;;;;;;;4.87;1.60;;;;;;;14.37;65.23;98517.69;4433081;32;20101;-83
2022/10/04 05:18:29;;;;;;;3.72;1.55;;;;;;;14.38;64.97;98515.00;4432710;32;20168;-83
2022/10/04 05:21:02;;;;;;;3.22;1.20;;;;;;;14.64;63.50;98518.88;4432715;32;20123;-83
2022/10/04 05:23:29;;;;;;;4.22;1.30;;;;;;;14.62;63.13;98518.12;4446412;32;20076;-83
2022/10/04 05:25:59;;;;;;;5.97;1.52;;;;;;;14.47;63.30;98524.13;4445601;32;20112;-83
2022/10/04 05:28:26;;;;;;;4.82;1.50;;;;;;;14.23;63.77;98526.12;4445893;32;20054;-83
2022/10/04 05:31:09;;;;;;;4.90;1.50;;;;;;;14.62;62.09;98520.72;4431975;32;20115;-83
2022/10/04 05:33:44;;;;;;;4.62;1.55;;;;;;;14.82;61.37;98522.28;4444180;32;20110;-83
2022/10/04 05:36:12;;;;;;;6.10;1.62;;;;;;;14.64;61.88;98524.06;4429782;32;20494;-83
2022/10/04 05:39:04;;;;;;;6.32;1.77;;;;;;;14.81;61.45;98528.41;4446682;32;20058;-83
2022/10/04 05:41:38;;;;;;;9.68;2.28;;;;;;;14.70;61.99;98533.31;4455889;32;20057;-83
2022/10/04 05:44:33;;;;;;;7.57;2.22;;;;;;;14.55;62.13;98532.31;4430663;32;20057;-83
2022/10/04 05:47:02;;;;;;;9.07;2.30;;;;;;;14.85;61.03;98529.91;4455676;32;20078;-84
2022/10/04 05:49:51;;;;;;;7.78;1.87;;;;;;;15.79;58.45;98536.97;4455279;32;20073;-84
2022/10/04 05:52:29;;;;;;;6.82;1.80;;;;;;;15.70;57.66;98537.47;4455880;32;20085;-82
2022/10/04 05:55:26;;;;;;;3.33;1.30;;;;;;;16.23;56.39;98540.56;4441895;32;20062;-84
2022/10/04 05:58:05;;;;;;;3.62;1.33;;;;;;;15.56;57.69;98546.00;4441013;32;20097;-83
2022/10/04 06:00:44;;;;;;;4.62;1.65;;;;;;;15.74;57.74;98551.16;4438300;32;20066;-84
2022/10/04 06:03:14;;;;;;;3.75;1.40;;;;;;;16.14;56.50;98554.94;4441705;32;20103;-84
2022/10/04 06:06:00;;;;;;;3.53;1.40;;;;;;;15.71;57.03;98554.75;4454955;32;20111;-83
2022/10/04 06:08:33;;;;;;;5.95;1.40;;;;;;;16.29;55.81;98556.69;4455530;32;20074;-83
2022/10/04 06:11:04;;;;;;;3.10;1.33;;;;;;;15.82;56.62;98557.59;4487157;26;20074;31
2022/10/04 06:13:39;;;;;;;6.78;1.20;;;;;;;16.42;54.77;98560.22;4463960;26;20108;-77
2022/10/04 06:16:21;;;;;;;2.53;1.05;;;;;;;16.84;52.94;98566.47;4411847;32;20108;-77
2022/10/04 06:19:13;;;;;;;2.58;1.20;;;;;;;15.84;55.65;98553.16;4426670;32;20160;-78
2022/10/04 06:22:21;;;;;;;5.30;1.73;;;;;;;16.51;53.82;98564.06;4425607;32;20143;-77
2022/10/04 06:25:09;;;;;;;3.58;1.37;;;;;;;16.32;54.43;98553.87;4425294;32;20101;-79
2022/10/04 06:27:48;;;;;;;4.12;1.20;;;;;;;16.14;55.50;98560.97;4399013;32;20457;-82
2022/10/04 06:30:17;;;;;;;3.42;1.55;;;;;;;16.18;56.27;98553.84;4429453;32;20101;-80
2022/10/04 06:33:22;;;;;;;4.70;1.40;;;;;;;15.99;55.79;98548.84;4412212;32;20124;-82
2022/10/04 06:36:07;;;;;;;1.58;1.15;;;;;;;16.42;55.54;98578.47;4411735;32;20104;-83
2022/10/04 06:38:55;;;;;;;4.03;1.10;;;;;;;16.37;55.58;98579.66;4425795;32;20441;-82
2022/10/04 06:41:24;;;;;;;5.87;1.48;;;;;;;16.18;56.76;98583.31;4411633;32;20459;-82
2022/10/04 06:44:11;;;;;;;6.53;1.52;;;;;;;15.35;60.71;98578.38;4412868;32;20117;-82
2022/10/04 06:46:46;;;;;;;3.37;1.17;;;;;;;15.99;60.05;98581.84;4430500;32;20136;-84
2022/10/04 06:49:32;;;;;;;3.85;1.55;;;;;;;16.83;58.16;98583.06;4427556;32;20086;-83
2022/10/04 06:52:11;;;;;;;4.82;1.30;;;;;;;17.57;54.85;98577.63;4432576;32;20109;-82
2022/10/04 06:54:49;;;;;;;4.30;1.42;;;;;;;17.79;54.51;98581.50;4430115;32;20108;-81
2022/10/04 06:57:15;;;;;;;5.97;1.40;;;;;;;17.32;55.73;98593.94;4431312;32;20112;-82
2022/10/04 06:59:43;;;;;;;;;;;;;;;17.30;56.19;98582.75;4419501;32;20086;-82
2022/10/04 07:02:20;;;;;;;6.35;1.60;;;;;;;16.08;59.80;98587.38;4415677;32;20636;-82
2022/10/04 07:05:19;;;;;;;3.22;1.20;;;;;;;15.87;60.84;98597.22;4402304;32;20113;-80
2022/10/04 07:08:05;;;;;;;6.70;1.75;;;;;;;16.00;61.42;98609.53;4414473;32;20148;-80
2022/10/04 07:10:49;;;;;;;3.80;1.45;;;;;;;16.16;61.03;98599.94;4402997;32;20140;-80
2022/10/04 07:13:32;;;;;;;4.57;1.75;;;;;;;15.48;63.10;98601.97;4393702;32;20754;-80
2022/10/04 07:16:09;;;;;;;9.20;1.90;;;;;;;16.01;60.76;98600.81;4390736;32;20167;-80
2022/10/04 07:19:00;;;;;;;6.53;1.80;;;;;;;16.11;60.95;98597.59;4392266;32;20098;-80
2022/10/04 07:21:39;;;;;;;4.37;1.42;;;;;;;15.85;60.70;98606.87;4393587;32;20193;-80
2022/10/04 07:24:09;;;;;;;7.43;1.60;;;;;;;16.33;60.16;98606.81;4392046;32;20400;-80
2022/10/04 07:26:48;;;;;;;6.60;1.50;;;;;;;16.77;58.93;98612.06;4393072;32;20472;-80
2022/10/04 07:29:22;;;;;;;4.05;1.37;;;;;;;17.64;55.40;98620.63;4393458;32;20098;-80
2022/10/04 07:32:05;;;;;;;4.55;1.40;;;;;;;18.04;54.51;98617.31;4392504;32;20193;-80
2022/10/04 07:34:45;;;;;;;3.42;1.30;;;;;;;17.86;53.15;98616.72;4390733;32;20668;-80
2022/10/04 07:37:13;;;;;;;3.58;1.20;;;;;;;17.93;53.47;98624.06;4390014;32;20578;-79
2022/10/04 07:39:52;;;;;;;3.10;1.23;;;;;;;18.26;52.83;98624.62;4389698;32;20090;-79
2022/10/04 07:42:33;;;;;;;4.75;1.50;;;;;;;18.00;52.82;98626.31;4390753;32;20116;-80
2022/10/04 07:45:19;;;;;;;2.65;1.30;;;;;;;18.19;53.24;98635.47;4389745;32;20106;-80
2022/10/04 07:47:47;;;;;;;1.75;1.20;;;;;;;18.63;50.67;98631.72;4391010;32;20117;-80
2022/10/04 07:50:20;;;;;;;4.85;1.55;;;;;;;18.49;52.11;98634.41;4391642;32;20095;-81
2022/10/04 07:53:14;;;;;;;7.03;1.58;;;;;;;18.13;53.44;98625.41;4393898;32;20141;-80
2022/10/04 07:56:08;;;;;;;5.80;1.65;;;;;;;17.54;54.95;98635.19;4393586;32;20117;-80
2022/10/04 07:59:18;;;;;;;4.45;1.30;;;;;;;18.05;53.28;98625.06;4393353;32;20116;-80
2022/10/04 08:02:00;;;;;;;2.95;1.40;;;;;;;16.80;57.01;98630.16;4392436;32;20132;-80
2022/10/04 08:04:54;;;;;;;6.40;1.70;;;;;;;17.00;56.88;98635.00;4394780;32;20156;-80
2022/10/04 08:07:51;;;;;;;4.15;1.70;;;;;;;16.86;58.46;98636.75;4392735;32;20117;-79
2022/10/04 08:10:47;;;;;;;3.33;1.33;;;;;;;17.24;57.19;98637.94;4393634;32;20102;-81
2022/10/04 08:13:40;;;;;;;5.68;1.33;;;;;;;16.95;58.07;98631.00;4404013;32;20354;-79
2022/10/04 08:16:36;;;;;;;5.43;2.03;;;;;;;16.99;59.51;98638.53;4408150;32;20445;-79
2022/10/04 08:19:37;;;;;;;5.32;1.52;;;;;;;16.42;61.04;98630.56;4409143;32;20090;-80
2022/10/04 08:22:22;;;;;;;4.87;1.67;;;;;;;16.92;59.53;98633.78;4408719;32;20093;-80
2022/10/04 08:25:00;;;;;;;5.03;1.42;;;;;;;17.42;58.47;98629.87;4408243;32;20440;-79
2022/10/04 08:31:08;;;;;;;3.92;1.48;;;;;;;17.59;57.70;98645.34;4408490;32;20128;-80
2022/10/04 08:34:09;;;;;;;8.07;1.70;;;;;;;18.05;56.17;98621.59;4408004;32;20556;-79
2022/10/04 08:36:49;;;;;;;6.20;1.62;;;;;;;17.03;59.42;98644.41;4395572;32;20093;-79
2022/10/04 08:39:56;;;;;;;3.75;1.55;;;;;;;16.33;62.57;98649.31;4394796;32;20090;-80
2022/10/04 08:42:32;;;;;;;5.93;1.40;;;;;;;17.88;57.33;98648.81;4407872;32;20106;-80
2022/10/04 08:45:31;;;;;;;4.30;1.40;;;;;;;18.58;55.23;98644.25;4408100;32;20102;-79
2022/10/04 08:48:29;;;;;;;3.83;1.50;;;;;;;18.29;56.13;98643.56;4407844;32;20131;-80
2022/10/04 08:50:59;;;;;;;5.68;1.42;;;;;;;18.55;55.77;98646.22;4413312;32;20171;-80
2022/10/04 08:53:47;;;;;;;4.90;1.73;;;;;;;19.89;50.36;98650.16;4413587;32;20462;-80
2022/10/04 08:56:40;;;;;;;7.30;2.00;;;;;;;20.45;49.78;98650.50;4413176;32;20104;-79
2022/10/04 08:59:16;;;;;;;5.35;1.52;;;;;;;19.29;51.41;98651.69;4413351;32;20217;-79
2022/10/04 09:01:46;;;;;;;4.07;1.50;;;;;;;17.75;55.60;98668.75;4413291;32;20372;-79
2022/10/04 09:04:44;;;;;;;8.27;1.50;;;;;;;18.87;52.13;98652.81;4412408;32;20117;-79
2022/10/04 09:07:26;;;;;;;4.35;1.55;;;;;;;18.04;55.75;98656.50;4413680;32;20090;-79
2022/10/04 09:10:20;;;;;;;2.42;1.30;;;;;;;19.34;50.96;98641.72;4412756;32;20094;-79
2022/10/04 09:13:05;;;;;;;5.65;1.58;;;;;;;18.88;52.76;98643.19;4412760;32;20114;-79
2022/10/04 09:15:51;;;;;;;3.22;1.55;;;;;;;19.59;49.98;98645.31;4412223;32;20094;-79
2022/10/04 09:19:07;;;;;;;4.90;1.60;;;;;;;19.39;50.71;98645.81;4413222;32;20106;-79
2022/10/04 09:22:12;;;;;;;5.20;1.40;;;;;;;18.71;53.41;98652.97;4386616;32;20112;-79
2022/10/04 09:24:51;;;;;;;4.85;1.30;;;;;;;18.97;52.38;98647.81;4411407;32;20091;-79
2022/10/04 09:27:40;;;;;;;2.92;1.75;;;;;;;18.91;52.02;98648.19;4413524;32;20117;-79
2022/10/04 09:30:57;;;;;;;4.90;1.62;;;;;;;18.73;53.22;98651.13;4412748;32;20562;-79
2022/10/04 09:33:42;;;;;;;4.82;1.55;;;;;;;19.00;52.48;98647.59;4411161;32;20148;-79
2022/10/04 09:36:21;;;;;;;4.37;1.67;;;;;;;18.92;53.50;98645.47;4399290;32;20094;-79
2022/10/04 09:38:51;;;;;;;2.92;1.52;;;;;;;18.13;55.13;98654.13;4412584;32;20102;-79
2022/10/04 09:42:03;;;;;;;6.70;1.80;;;;;;;18.50;55.16;98656.97;4412332;32;20511;-78
2022/10/04 09:45:08;;;;;;;4.53;1.70;;;;;;;18.31;55.96;98662.56;4411383;32;20526;-80
2022/10/04 09:48:13;;;;;;;11.45;1.80;;;;;;;18.11;55.54;98653.41;4413109;32;20085;-80
2022/10/04 09:51:12;;;;;;;4.55;1.77;;;;;;;18.03;56.31;98653.03;4379466;32;20181;-80
2022/10/04 09:53:45;;;;;;;;;;;;;;;18.96;53.84;98654.81;4412586;32;20171;-79
2022/10/04 09:56:18;;;;;;;4.10;1.62;;;;;;;18.41;55.39;98657.59;4398730;32;19977;-79
2022/10/04 09:59:03;;;;;;;3.87;1.80;;;;;;;18.74;53.49;98662.41;4410349;32;20093;-80
2022/10/04 10:01:41;;;;;;;5.00;1.80;;;;;;;18.79;54.42;98660.31;4409051;32;20113;-80
2022/10/04 10:04:28;;;;;;;7.62;2.12;;;;;;;18.83;53.71;98671.44;4394546;32;20156;-80
2022/10/04 10:07:27;;;;;;;10.05;2.40;;;;;;;18.75;54.31;98670.16;4408883;32;20086;-80
2022/10/04 10:15:42;;;;;;;5.22;1.92;;;;;;;18.57;54.69;98658.25;4408995;32;20106;-79
2022/10/04 10:18:39;;;;;;;5.43;1.90;;;;;;;17.51;57.13;98674.53;4396142;32;20614;-79
2022/10/04 10:21:20;;;;;;;6.57;2.20;;;;;;;17.59;57.78;98671.44;4409426;32;20104;-79
2022/10/04 10:24:25;;;;;;;6.03;2.10;;;;;;;17.41;58.26;98672.56;4395512;32;20098;-80
2022/10/04 10:26:55;;;;;;;3.40;1.80;;;;;;;17.70;56.90;98671.66;4382943;32;20098;-80
2022/10/04 10:29:31;;;;;;;5.82;1.87;;;;;;;17.54;57.95;98669.09;4409519;32;20097;-80
2022/10/04 10:32:03;;;;;;;5.65;2.00;;;;;;;18.49;55.09;98678.81;4409785;32;20073;-80
2022/10/04 10:34:51;;;;;;;6.50;1.80;;;;;;;18.59;54.84;98666.00;4408617;32;20120;-80
2022/10/04 10:37:47;;;;;;;7.10;1.90;;;;;;;18.23;54.37;98667.44;4409313;32;20102;-82
2022/10/04 10:40:36;;;;;;;6.25;2.03;;;;;;;18.21;54.02;98666.72;4409386;32;20104;-81
2022/10/04 10:43:08;;;;;;;5.18;1.87;;;;;;;18.58;54.53;98688.66;4409976;32;20160;-82
2022/10/04 10:45:51;;;;;;;3.60;1.80;;;;;;;18.96;52.04;98680.13;4408688;32;20448;-80
2022/10/04 10:48:45;;;;;;;5.82;1.87;;;;;;;18.60;53.58;98689.41;4409315;32;20116;-80
2022/10/04 10:51:19;;;;;;;5.05;1.90;;;;;;;18.71;52.20;98684.34;4409251;32;20082;-80
2022/10/04 10:54:24;;;;;;;5.20;1.83;;;;;;;18.94;52.41;98682.00;4395618;32;20093;-79
2022/10/04 11:00:46;;;;;;;4.68;1.80;;;;;;;19.86;50.64;98680.00;4399582;32;20478;-81
2022/10/04 11:03:22;;;;;;;7.35;1.85;;;;;;;19.47;50.03;98673.13;4409681;32;20427;-80
2022/10/04 11:06:15;;;;;;;5.70;1.60;;;;;;;20.03;50.24;98673.56;4396528;32;20134;-81
2022/10/04 11:09:03;;;;;;;5.85;1.58;;;;;;;19.64;51.10;98666.75;4409430;32;20114;-80
2022/10/04 11:11:48;;;;;;;5.97;1.50;;;;;;;20.04;48.15;98670.00;4408808;32;20362;-80
2022/10/04 11:14:41;;;;;;;4.60;1.50;;;;;;;19.78;48.62;98671.88;4395052;32;20108;-80
2022/10/04 11:17:14;;;;;;;2.78;1.33;;;;;;;19.13;49.71;98671.97;4394988;32;20104;-80
2022/10/04 11:20:10;;;;;;;8.65;1.70;;;;;;;20.02;48.04;98668.47;4409623;32;20094;-84
2022/10/04 11:22:59;;;;;;;4.80;1.50;;;;;;;19.60;49.17;98667.91;4411339;32;20112;-84
2022/10/04 11:25:53;;;;;;;7.62;1.83;;;;;;;19.44;49.32;98667.25;4395632;32;20085;-84
2022/10/04 11:29:28;;;;;;;3.55;1.33;;;;;;;20.50;46.70;98664.91;4409564;32;20086;-80
2022/10/04 11:32:00;;;;;;;4.90;1.60;;;;;;;19.60;48.00;98674.00;4338077;33;20470;-80
2022/10/04 11:35:01;;;;;;;7.30;1.85;;;;;;;19.57;48.59;98682.06;4398931;32;20162;-80
2022/10/04 11:38:14;;;;;;;5.72;1.80;;;;;;;19.63;48.45;98665.06;4408796;32;20094;-79
2022/10/04 11:40:47;;;;;;;5.47;1.83;;;;;;;18.71;50.75;98673.88;4383099;32;20125;-80
2022/10/04 11:43:41;;;;;;;4.25;1.60;;;;;;;19.74;48.76;98682.66;4409050;32;20117;-80
2022/10/04 11:46:33;;;;;;;5.82;1.60;;;;;;;20.32;45.41;98675.91;4409079;32;20102;-79
2022/10/04 11:49:45;;;;;;;4.93;1.50;;;;;;;20.28;48.00;98679.66;4408649;32;20094;-80
2022/10/04 11:52:42;;;;;;;6.03;1.60;;;;;;;20.44;46.91;98693.38;4376280;32;20113;-80
2022/10/04 11:55:37;;;;;;;4.85;1.60;;;;;;;20.50;46.19;98688.50;4375861;32;20107;-80
2022/10/04 11:58:31;;;;;;;7.45;1.80;;;;;;;19.84;46.79;98683.69;4405834;32;20094;-80
2022/10/04 12:01:37;;;;;;;3.58;1.50;;;;;;;19.27;48.40;98686.75;4408454;32;20098;-80
2022/10/04 12:04:52;;;;;;;6.10;1.67;;;;;;;18.55;51.06;98686.28;4408352;32;20091;-80
2022/10/04 12:07:45;;;;;;;5.95;1.50;;;;;;;18.90;50.42;98681.34;4375516;32;20102;-80
2022/10/04 12:10:26;;;;;;;4.70;1.67;;;;;;;18.97;51.29;98680.03;4368735;32;20111;-79
2022/10/04 12:13:39;;;;;;;5.25;1.55;;;;;;;19.84;48.71;98681.91;4391722;32;20078;-80
2022/10/04 12:16:28;;;;;;;5.72;1.83;;;;;;;19.50;48.97;98665.06;4400008;32;20079;-82
2022/10/04 12:19:26;;;;;;;3.87;1.70;;;;;;;19.12;50.31;98674.69;4410703;32;20141;-81
2022/10/04 12:22:38;;;;;;;3.42;1.40;;;;;;;18.09;52.34;98676.16;4396048;32;20124;-80
2022/10/04 12:25:31;;;;;;;7.43;1.60;;;;;;;18.36;52.43;98673.56;4395815;32;20089;-83
2022/10/04 12:27:58;;;;;;;7.12;1.80;;;;;;;18.61;52.83;98678.03;4411015;32;20062;-83
2022/10/04 12:30:35;;;;;;;4.72;1.70;;;;;;;18.88;51.26;98671.94;4410441;32;20132;-82
2022/10/04 12:33:14;;;;;;;6.72;1.98;;;;;;;18.98;51.12;98668.63;4409365;32;20105;-83
2022/10/04 12:36:19;;;;;;;5.25;1.50;;;;;;;18.50;52.30;98672.66;4409752;32;20429;-80
2022/10/04 12:39:07;;;;;;;7.70;1.60;;;;;;;17.84;53.36;98668.19;4408377;32;20152;-80
2022/10/04 12:41:33;;;;;;;;;;;;;;;17.83;54.48;98677.78;4396270;32;20507;-81
2022/10/04 12:44:25;;;;;;;6.78;1.70;;;;;;;18.06;53.05;98683.34;4396089;32;19986;-80
2022/10/04 12:47:08;;;;;;;6.85;1.95;;;;;;;18.48;53.58;98677.16;4409304;32;20116;-81
2022/10/04 12:50:03;;;;;;;10.80;2.03;;;;;;;18.88;52.68;98677.19;4409625;32;20349;-80
2022/10/04 12:52:46;;;;;;;6.62;1.70;;;;;;;19.59;50.27;98674.94;4395860;32;20111;-81